Terminal Aerodrome Forecast
Issued by NWS

Current Version | Previous Version | Graphics & Text | Print | Product List | Glossary On
Versions: 1 2 3 4 5 6 7 8 9 10 11 12 13 14
000
FTUS41 KRNK 260548
TAFLWB
TAF
KLWB 260548Z 2606/2706 00000KT P6SM SCT070
      TEMPO 2606/2609 BKN070
     FM261400 28008G16KT P6SM FEW050 SCT150
     FM262300 27004KT P6SM BKN150=

USA.gov is the U.S. government's official web portal to all federal, state and local government web resources and services.